Time;durP1;ratioP1;P1;durP2;ratioP2;P2;SDS_P1;SDS_P2;PMS_P1;PMS_P2;Temp;Humidity;BMP_temperature;BMP_pressure;BME280_temperature;BME280_humidity;BME280_pressure;Samples;Min_cycle;Max_cycle;Signal;HPM_P1;HPM_P2
2023/01/21 06:55:15;;;;;;;22.42;13.25;;;;;;;;;;10590843;27;20464;-81
2023/01/21 07:00:17;;;;;;;16.58;8.63;;;;;;;;;;10589919;28;20032;-82
2023/01/21 07:05:19;;;;;;;14.45;8.50;;;;;;;;;;10591417;28;20032;-82
2023/01/21 07:10:20;;;;;;;16.38;11.00;;;;;;;;;;10591290;28;20023;-82
2023/01/21 07:15:22;;;;;;;15.82;10.63;;;;;;;;;;10589887;28;20023;-82
2023/01/21 07:20:23;;;;;;;13.05;8.95;;;;;;;;;;10588683;28;20038;-82
2023/01/21 07:25:24;;;;;;;13.45;8.88;;;;;;;;;;10588631;28;20070;-83
2023/01/21 07:30:25;;;;;;;;;;;;;;;;;;10590008;28;20032;-82
2023/01/21 07:35:26;;;;;;;20.75;12.20;;;;;;;;;;10590233;28;19911;-84
2023/01/21 07:40:27;;;;;;;14.35;9.40;;;;;;;;;;10588154;28;20031;-82
2023/01/21 07:45:28;;;;;;;12.57;8.63;;;;;;;;;;10590277;28;20023;-82
2023/01/21 07:50:29;;;;;;;11.65;8.30;;;;;;;;;;10587660;28;20043;-83
2023/01/21 07:55:39;;;;;;;13.68;9.32;;;;;;;;;;10586157;28;20031;-84
2023/01/21 08:00:41;;;;;;;13.73;7.18;;;;;;;;;;10587264;28;20052;-84
2023/01/21 08:05:42;;;;;;;11.02;5.97;;;;;;;;;;10561682;28;20040;-82
2023/01/21 08:10:43;;;;;;;16.13;10.48;;;;;;;;;;10555661;28;20167;-81
2023/01/21 08:15:53;;;;;;;23.13;12.98;;;;;;;;;;10556362;28;20078;-82
2023/01/21 08:20:55;;;;;;;27.35;15.50;;;;;;;;;;10561932;28;20096;-79
2023/01/21 08:25:56;;;;;;;21.00;11.70;;;;;;;;;;10553378;28;20020;-79
2023/01/21 08:31:07;;;;;;;19.60;13.23;;;;;;;;;;10552244;28;20166;-78
2023/01/21 08:36:08;;;;;;;16.40;10.18;;;;;;;;;;10549220;28;20486;-77
2023/01/21 08:41:10;;;;;;;17.77;10.60;;;;;;;;;;10549808;28;20028;-78
2023/01/21 08:46:11;;;;;;;21.67;11.57;;;;;;;;;;10552089;28;20024;-79
2023/01/21 08:51:12;;;;;;;17.67;10.85;;;;;;;;;;10553483;28;20032;-79
2023/01/21 08:56:13;;;;;;;13.43;9.05;;;;;;;;;;10551216;28;20590;-79
2023/01/21 09:01:14;;;;;;;16.45;10.30;;;;;;;;;;10551911;28;20113;-79
2023/01/21 09:06:16;;;;;;;16.85;10.70;;;;;;;;;;10552132;28;20028;-79
2023/01/21 09:11:16;;;;;;;;;;;;;;;;;;10554614;28;20130;-78
2023/01/21 09:16:19;;;;;;;14.50;9.25;;;;;;;;;;10550371;28;19904;-79
2023/01/21 09:21:20;;;;;;;14.80;9.20;;;;;;;;;;10554666;28;20036;-78
2023/01/21 09:26:25;;;;;;;15.38;10.43;;;;;;;;;;10553333;28;20027;-78
2023/01/21 09:31:27;;;;;;;14.80;8.57;;;;;;;;;;10553036;28;20478;-78
2023/01/21 09:36:30;;;;;;;13.52;9.07;;;;;;;;;;10553600;28;20032;-79
2023/01/21 09:41:43;;;;;;;16.77;10.52;;;;;;;;;;10548954;28;20028;-79
2023/01/21 09:46:44;;;;;;;14.18;9.02;;;;;;;;;;10550112;28;20033;-80
2023/01/21 09:51:53;;;;;;;12.77;8.73;;;;;;;;;;10549918;28;20188;-79
2023/01/21 09:57:10;;;;;;;11.10;7.93;;;;;;;;;;10549666;28;20032;-79
2023/01/21 10:02:20;;;;;;;13.07;9.02;;;;;;;;;;10551522;28;20024;-80
2023/01/21 10:07:33;;;;;;;14.25;8.90;;;;;;;;;;10554449;28;20062;-79
2023/01/21 10:12:53;;;;;;;12.45;8.25;;;;;;;;;;10558909;28;20047;-79
2023/01/21 10:17:54;;;;;;;12.95;9.05;;;;;;;;;;10548785;28;20474;-79
2023/01/21 10:23:01;;;;;;;18.90;12.68;;;;;;;;;;10550590;28;20028;-80
2023/01/21 10:28:11;;;;;;;12.95;9.25;;;;;;;;;;10550894;28;20078;-79
2023/01/21 10:33:16;;;;;;;11.82;8.23;;;;;;;;;;10550498;28;20028;-79
2023/01/21 10:38:24;;;;;;;10.90;8.40;;;;;;;;;;10554739;28;20030;-79
2023/01/21 10:43:39;;;;;;;17.45;10.98;;;;;;;;;;10555479;28;20055;-79
2023/01/21 10:48:49;;;;;;;15.27;11.10;;;;;;;;;;10556363;28;20047;-79
2023/01/21 10:53:55;;;;;;;11.98;8.48;;;;;;;;;;10546141;28;20032;-80
2023/01/21 10:58:59;;;;;;;14.77;9.32;;;;;;;;;;10546785;28;20028;-79
2023/01/21 11:04:04;;;;;;;13.20;8.52;;;;;;;;;;10545911;28;20024;-77
2023/01/21 11:09:06;;;;;;;10.40;7.78;;;;;;;;;;10545244;28;20024;-79
2023/01/21 11:14:08;;;;;;;13.20;9.30;;;;;;;;;;10546891;28;20028;-80
2023/01/21 11:19:11;;;;;;;15.40;9.43;;;;;;;;;;10550844;28;20035;-80
2023/01/21 11:24:23;;;;;;;14.82;9.65;;;;;;;;;;10548194;28;20442;-79
2023/01/21 11:29:25;;;;;;;14.75;10.52;;;;;;;;;;10548961;28;20028;-79
2023/01/21 11:34:26;;;;;;;13.68;10.02;;;;;;;;;;10551676;28;20057;-79
2023/01/21 11:39:36;;;;;;;18.58;13.60;;;;;;;;;;10555025;28;20028;-81
2023/01/21 11:44:49;;;;;;;11.13;8.40;;;;;;;;;;10568805;28;20024;-85
2023/01/21 11:49:50;;;;;;;15.00;10.70;;;;;;;;;;10569691;28;20048;-81
2023/01/21 11:54:51;;;;;;;12.73;8.70;;;;;;;;;;10561342;28;20039;-80
2023/01/21 11:59:54;;;;;;;12.23;8.20;;;;;;;;;;10555299;28;20032;-81
2023/01/21 12:05:01;;;;;;;10.57;7.82;;;;;;;;;;10557350;28;20028;-81
2023/01/21 12:10:11;;;;;;;9.07;6.75;;;;;;;;;;10555129;28;20028;-80
2023/01/21 12:15:44;;;;;;;9.35;7.32;;;;;;;;;;10554143;28;20388;-80
2023/01/21 12:21:06;;;;;;;16.55;10.88;;;;;;;;;;10496834;28;20458;-81
2023/01/21 12:26:20;;;;;;;8.93;6.57;;;;;;;;;;10552773;28;20077;-80
2023/01/21 12:31:31;;;;;;;10.05;7.07;;;;;;;;;;10553247;28;20024;-81
2023/01/21 12:36:44;;;;;;;10.68;6.68;;;;;;;;;;10548633;28;20119;-80
2023/01/21 12:41:48;;;;;;;8.55;6.47;;;;;;;;;;10548574;28;20107;-80
2023/01/21 12:46:50;;;;;;;11.05;8.23;;;;;;;;;;10548518;28;20024;-80
2023/01/21 12:52:10;;;;;;;9.02;4.72;;;;;;;;;;10547694;28;20051;-80
2023/01/21 12:57:20;;;;;;;12.15;6.32;;;;;;;;;;10552961;28;20039;-80
2023/01/21 13:02:44;;;;;;;12.20;8.70;;;;;;;;;;10556199;28;20024;-81
2023/01/21 13:07:53;;;;;;;14.02;9.75;;;;;;;;;;10576192;28;20031;-81
2023/01/21 13:12:59;;;;;;;10.07;7.15;;;;;;;;;;10560657;28;20032;-81
2023/01/21 13:18:02;;;;;;;10.35;7.70;;;;;;;;;;10548402;28;20112;-81
2023/01/21 13:23:22;;;;;;;9.40;7.38;;;;;;;;;;10549313;28;20031;-83
2023/01/21 13:28:31;;;;;;;14.57;10.98;;;;;;;;;;10552995;28;20032;-81
2023/01/21 13:34:01;;;;;;;9.52;6.78;;;;;;;;;;10551740;28;20441;-82
2023/01/21 13:39:21;;;;;;;7.27;5.87;;;;;;;;;;10562957;28;20028;-80
2023/01/21 13:44:36;;;;;;;14.48;10.25;;;;;;;;;;10586332;28;20027;-82
2023/01/21 13:49:54;;;;;;;;;;;;;;;;;;10564015;28;20035;-82
2023/01/21 13:55:17;;;;;;;7.47;4.95;;;;;;;;;;10563055;28;19965;-82
2023/01/21 14:00:40;;;;;;;12.48;9.25;;;;;;;;;;10550048;28;20035;-82
2023/01/21 14:06:04;;;;;;;11.40;7.35;;;;;;;;;;10586151;28;20032;-81
2023/01/21 14:11:10;;;;;;;11.25;8.20;;;;;;;;;;10589963;28;20058;-83
2023/01/21 14:16:30;;;;;;;11.05;7.70;;;;;;;;;;10564734;28;20036;-83
2023/01/21 14:21:47;;;;;;;10.57;6.60;;;;;;;;;;10562234;28;20035;-83
2023/01/21 14:26:51;;;;;;;7.50;5.72;;;;;;;;;;10585138;28;20036;-80
2023/01/21 14:31:57;;;;;;;15.30;11.30;;;;;;;;;;10587693;28;20084;-80
2023/01/21 14:37:17;;;;;;;13.88;10.82;;;;;;;;;;10572789;28;20038;-82
2023/01/21 14:42:25;;;;;;;19.75;13.15;;;;;;;;;;10576143;28;20043;-83
2023/01/21 14:47:29;;;;;;;16.38;11.70;;;;;;;;;;10552697;28;20028;-83
2023/01/21 14:52:39;;;;;;;7.80;5.50;;;;;;;;;;10548108;28;20040;-83
2023/01/21 14:57:41;;;;;;;11.85;8.32;;;;;;;;;;10548808;28;20032;-83
2023/01/21 15:02:46;;;;;;;9.68;6.90;;;;;;;;;;10549151;28;20035;-83
2023/01/21 15:07:48;;;;;;;15.88;12.02;;;;;;;;;;10551151;28;20024;-82
2023/01/21 15:12:57;;;;;;;10.15;7.53;;;;;;;;;;10553880;28;20054;-84
2023/01/21 15:18:17;;;;;;;10.32;6.82;;;;;;;;;;10580447;28;20094;-82
2023/01/21 15:23:30;;;;;;;14.57;11.15;;;;;;;;;;10591812;28;20109;-82
2023/01/21 15:29:16;;;;;;;16.75;12.32;;;;;;;;;;10595248;28;20032;-81
2023/01/21 15:45:51;;;;;;;8.18;6.13;;;;;;;;;;10577737;28;20031;-83
2023/01/21 15:51:11;;;;;;;6.68;5.03;;;;;;;;;;10568767;28;20109;-82
2023/01/21 15:56:35;;;;;;;6.23;5.00;;;;;;;;;;10580421;28;20080;-84
2023/01/21 16:01:41;;;;;;;7.38;5.25;;;;;;;;;;10568957;28;20439;-83
2023/01/21 16:06:42;;;;;;;7.82;5.75;;;;;;;;;;10564320;28;20023;-84
2023/01/21 16:18:04;;;;;;;6.60;4.72;;;;;;;;;;10547176;28;20044;-84
2023/01/21 16:23:54;;;;;;;5.35;4.00;;;;;;;;;;10509542;28;20054;-83
2023/01/21 16:29:09;;;;;;;5.57;4.13;;;;;;;;;;10544447;28;20028;-84
2023/01/21 16:46:18;;;;;;;7.75;5.97;;;;;;;;;;10509429;28;20066;-83
2023/01/21 16:51:25;;;;;;;6.20;4.67;;;;;;;;;;10534056;28;20044;-81
2023/01/21 16:56:54;;;;;;;6.22;4.60;;;;;;;;;;10521136;28;20264;-84
2023/01/21 17:02:03;;;;;;;6.15;4.22;;;;;;;;;;10545421;28;20040;-83
2023/01/21 17:07:04;;;;;;;6.95;5.05;;;;;;;;;;10555365;28;20020;-83
2023/01/21 17:12:06;;;;;;;6.03;4.80;;;;;;;;;;10555534;28;20100;-85
2023/01/21 17:17:08;;;;;;;6.25;4.93;;;;;;;;;;10554460;28;20053;-83
2023/01/21 17:22:15;;;;;;;7.80;5.07;;;;;;;;;;10552837;28;20066;-83
2023/01/21 17:27:17;;;;;;;6.38;4.85;;;;;;;;;;10553237;28;20367;-83
2023/01/21 17:32:48;;;;;;;5.05;3.95;;;;;;;;;;10556836;28;20028;-83
2023/01/21 17:37:59;;;;;;;6.23;5.03;;;;;;;;;;10568326;28;20039;-83
2023/01/21 17:43:09;;;;;;;7.28;5.40;;;;;;;;;;10553920;28;20035;-83
2023/01/21 17:48:20;;;;;;;6.85;5.10;;;;;;;;;;10552096;28;20493;-83
2023/01/21 17:53:29;;;;;;;6.60;5.40;;;;;;;;;;10554066;28;20118;-83
2023/01/21 17:58:30;;;;;;;4.93;4.03;;;;;;;;;;10553680;28;20019;-82
2023/01/21 18:03:31;;;;;;;17.17;12.68;;;;;;;;;;10553574;28;20032;-83
2023/01/21 18:08:32;;;;;;;10.80;8.23;;;;;;;;;;10553293;28;20111;-83
2023/01/21 18:13:33;;;;;;;9.55;6.93;;;;;;;;;;10558235;28;20063;-82
2023/01/21 18:18:34;;;;;;;8.05;6.03;;;;;;;;;;10560096;28;20050;-83
2023/01/21 18:23:35;;;;;;;7.00;5.05;;;;;;;;;;10553192;28;20115;-83
2023/01/21 18:28:37;;;;;;;15.82;12.23;;;;;;;;;;10554504;28;20104;-83
2023/01/21 18:33:38;;;;;;;8.77;5.18;;;;;;;;;;10565479;28;20048;-83
2023/01/21 18:38:39;;;;;;;10.40;7.90;;;;;;;;;;10583390;28;20043;-83
2023/01/21 18:43:41;;;;;;;6.15;5.00;;;;;;;;;;10565042;28;20032;-82
2023/01/21 18:48:42;;;;;;;;;;;;;;;;;;10550385;28;20028;-83
2023/01/21 18:53:43;;;;;;;12.70;8.23;;;;;;;;;;10566757;28;20077;-83
2023/01/21 18:58:44;;;;;;;15.25;11.82;;;;;;;;;;10541380;28;20066;-83
2023/01/21 19:03:48;;;;;;;6.30;5.00;;;;;;;;;;10554640;28;20082;-83
2023/01/21 19:08:49;;;;;;;7.35;5.80;;;;;;;;;;10552477;28;20119;-83
2023/01/21 19:13:51;;;;;;;6.68;5.13;;;;;;;;;;10552441;28;20020;-84
2023/01/21 19:18:52;;;;;;;;;;;;;;;;;;10552624;28;20103;-83
2023/01/21 19:23:53;;;;;;;8.35;5.95;;;;;;;;;;10558132;28;19904;-83
2023/01/21 19:28:54;;;;;;;10.50;7.75;;;;;;;;;;10570250;28;20032;-83
2023/01/21 19:33:55;;;;;;;9.80;7.32;;;;;;;;;;10551616;28;20044;-83
2023/01/21 19:38:57;;;;;;;11.10;8.30;;;;;;;;;;10549260;28;20410;-82
2023/01/21 19:43:58;;;;;;;10.02;7.55;;;;;;;;;;10548974;28;20024;-83
2023/01/21 19:48:59;;;;;;;;;;;;;;;;;;10550346;28;20131;-83
2023/01/21 19:54:00;;;;;;;9.75;7.05;;;;;;;;;;10576481;28;20297;-82
2023/01/21 19:59:01;;;;;;;13.23;9.55;;;;;;;;;;10543384;28;20111;-81
2023/01/21 20:04:02;;;;;;;8.85;6.35;;;;;;;;;;10550675;28;20430;-82
2023/01/21 20:09:04;;;;;;;11.05;7.70;;;;;;;;;;10548341;28;20114;-82
2023/01/21 20:14:05;;;;;;;9.43;7.20;;;;;;;;;;10549248;28;20088;-82
2023/01/21 20:19:09;;;;;;;14.77;11.27;;;;;;;;;;10552213;28;20079;-82
